sensor_id;sensor_type;location;lat;lon;timestamp;pressure;altitude;pressure_sealevel;temperature;humidity
9444;BME280;4760;42.148;24.754;2022-08-21T00:07:10;98894.56;;;22.11;100.00
9444;BME280;4760;42.148;24.754;2022-08-21T00:17:24;98876.47;;;22.12;100.00
9444;BME280;4760;42.148;24.754;2022-08-21T00:27:14;98869.03;;;22.00;100.00
9444;BME280;4760;42.148;24.754;2022-08-21T00:37:07;98875.25;;;22.04;100.00
9444;BME280;4760;42.148;24.754;2022-08-21T00:47:21;98846.66;;;22.14;100.00
9444;BME280;4760;42.148;24.754;2022-08-21T00:57:14;98860.22;;;22.16;100.00
9444;BME280;4760;42.148;24.754;2022-08-21T01:36:08;98807.31;;;22.47;100.00
9444;BME280;4760;42.148;24.754;2022-08-21T01:46:20;98814.22;;;22.61;100.00
9444;BME280;4760;42.148;24.754;2022-08-21T01:56:14;98837.91;;;22.45;100.00
9444;BME280;4760;42.148;24.754;2022-08-21T02:06:05;98885.16;;;22.23;100.00
9444;BME280;4760;42.148;24.754;2022-08-21T02:16:20;98884.72;;;22.15;100.00
9444;BME280;4760;42.148;24.754;2022-08-21T02:26:11;98887.72;;;22.03;100.00
9444;BME280;4760;42.148;24.754;2022-08-21T02:51:10;98924.53;;;22.14;100.00
9444;BME280;4760;42.148;24.754;2022-08-21T03:01:25;98908.94;;;22.13;100.00
9444;BME280;4760;42.148;24.754;2022-08-21T03:18:35;98922.69;;;22.02;100.00
9444;BME280;4760;42.148;24.754;2022-08-21T03:28:25;98921.59;;;22.74;100.00
9444;BME280;4760;42.148;24.754;2022-08-21T03:38:16;98899.69;;;22.22;100.00
9444;BME280;4760;42.148;24.754;2022-08-21T03:48:08;98926.59;;;21.95;100.00
9444;BME280;4760;42.148;24.754;2022-08-21T03:58:27;98935.63;;;21.90;100.00
9444;BME280;4760;42.148;24.754;2022-08-21T04:08:17;98933.28;;;21.98;100.00
9444;BME280;4760;42.148;24.754;2022-08-21T04:18:09;98926.47;;;21.81;100.00
9444;BME280;4760;42.148;24.754;2022-08-21T04:28:21;98931.88;;;22.02;100.00
9444;BME280;4760;42.148;24.754;2022-08-21T04:38:10;98912.72;;;22.01;100.00
9444;BME280;4760;42.148;24.754;2022-08-21T04:48:26;98908.69;;;21.93;100.00
9444;BME280;4760;42.148;24.754;2022-08-21T04:58:17;98894.66;;;21.93;100.00
9444;BME280;4760;42.148;24.754;2022-08-21T05:08:09;98893.88;;;21.83;100.00
9444;BME280;4760;42.148;24.754;2022-08-21T05:18:02;98899.59;;;21.98;100.00
9444;BME280;4760;42.148;24.754;2022-08-21T05:28:16;98884.00;;;22.06;100.00
9444;BME280;4760;42.148;24.754;2022-08-21T05:38:08;98882.91;;;22.03;100.00
9444;BME280;4760;42.148;24.754;2022-08-21T05:48:21;98904.00;;;22.32;100.00
9444;BME280;4760;42.148;24.754;2022-08-21T05:58:17;98913.72;;;22.54;100.00
9444;BME280;4760;42.148;24.754;2022-08-21T06:08:08;98919.38;;;22.78;100.00
9444;BME280;4760;42.148;24.754;2022-08-21T06:18:24;98929.78;;;22.87;100.00
9444;BME280;4760;42.148;24.754;2022-08-21T06:28:12;98928.41;;;22.82;100.00
9444;BME280;4760;42.148;24.754;2022-08-21T06:38:27;98930.06;;;22.89;100.00
9444;BME280;4760;42.148;24.754;2022-08-21T06:48:16;98918.13;;;23.03;100.00
9444;BME280;4760;42.148;24.754;2022-08-21T06:58:06;98887.91;;;23.13;100.00
9444;BME280;4760;42.148;24.754;2022-08-21T07:07:55;98902.34;;;23.59;100.00
9444;BME280;4760;42.148;24.754;2022-08-21T07:32:07;98857.34;;;24.08;100.00
9444;BME280;4760;42.148;24.754;2022-08-21T07:42:22;98884.81;;;24.42;100.00
9444;BME280;4760;42.148;24.754;2022-08-21T07:52:10;98868.06;;;25.34;100.00
9444;BME280;4760;42.148;24.754;2022-08-21T08:02:23;98904.34;;;26.24;100.00
9444;BME280;4760;42.148;24.754;2022-08-21T08:33:55;98885.91;;;25.26;100.00
9444;BME280;4760;42.148;24.754;2022-08-21T08:47:48;98870.16;;;25.65;100.00
9444;BME280;4760;42.148;24.754;2022-08-21T08:57:42;98864.22;;;25.38;100.00
9444;BME280;4760;42.148;24.754;2022-08-21T09:07:38;98826.34;;;24.98;100.00
9444;BME280;4760;42.148;24.754;2022-08-21T09:17:39;98847.91;;;25.21;100.00
9444;BME280;4760;42.148;24.754;2022-08-21T09:42:25;98828.13;;;25.73;100.00
9444;BME280;4760;42.148;24.754;2022-08-21T09:52:17;98825.22;;;26.24;100.00
9444;BME280;4760;42.148;24.754;2022-08-21T10:24:26;98756.63;;;26.30;100.00
9444;BME280;4760;42.148;24.754;2022-08-21T11:00:13;98843.69;;;26.20;100.00
9444;BME280;4760;42.148;24.754;2022-08-21T11:10:08;98844.03;;;26.33;100.00
9444;BME280;4760;42.148;24.754;2022-08-21T11:20:28;98844.03;;;26.33;100.00
9444;BME280;4760;42.148;24.754;2022-08-21T11:30:16;98828.88;;;26.42;100.00
9444;BME280;4760;42.148;24.754;2022-08-21T12:05:05;98801.59;;;26.27;100.00
9444;BME280;4760;42.148;24.754;2022-08-21T12:37:03;98780.13;;;25.73;100.00
9444;BME280;4760;42.148;24.754;2022-08-21T12:47:21;98765.69;;;25.34;100.00
9444;BME280;4760;42.148;24.754;2022-08-21T13:11:32;98734.09;;;25.61;100.00
9444;BME280;4760;42.148;24.754;2022-08-21T13:21:29;98740.22;;;25.91;100.00
9444;BME280;4760;42.148;24.754;2022-08-21T13:31:21;98744.88;;;26.37;100.00
9444;BME280;4760;42.148;24.754;2022-08-21T13:41:16;98731.34;;;26.68;100.00
9444;BME280;4760;42.148;24.754;2022-08-21T13:51:10;98739.41;;;26.92;100.00
9444;BME280;4760;42.148;24.754;2022-08-21T14:01:23;98732.75;;;27.06;100.00
9444;BME280;4760;42.148;24.754;2022-08-21T14:11:15;98730.72;;;27.24;100.00
9444;BME280;4760;42.148;24.754;2022-08-21T14:21:22;98714.50;;;27.18;100.00
9444;BME280;4760;42.148;24.754;2022-08-21T14:31:17;98709.09;;;27.26;100.00
9444;BME280;4760;42.148;24.754;2022-08-21T14:41:14;98705.00;;;27.49;100.00
9444;BME280;4760;42.148;24.754;2022-08-21T14:51:05;98695.72;;;27.49;100.00
9444;BME280;4760;42.148;24.754;2022-08-21T15:16:08;98695.88;;;26.79;100.00
9444;BME280;4760;42.148;24.754;2022-08-21T15:26:23;98683.44;;;26.37;100.00
9444;BME280;4760;42.148;24.754;2022-08-21T15:36:14;98674.56;;;26.13;100.00
9444;BME280;4760;42.148;24.754;2022-08-21T15:46:26;98660.44;;;26.13;100.00
9444;BME280;4760;42.148;24.754;2022-08-21T15:56:21;98643.66;;;25.87;100.00
9444;BME280;4760;42.148;24.754;2022-08-21T16:06:10;98639.78;;;25.85;100.00
9444;BME280;4760;42.148;24.754;2022-08-21T16:16:25;98623.00;;;25.64;100.00
9444;BME280;4760;42.148;24.754;2022-08-21T16:26:16;98629.94;;;25.63;100.00
9444;BME280;4760;42.148;24.754;2022-08-21T16:36:07;98624.06;;;25.30;100.00
9444;BME280;4760;42.148;24.754;2022-08-21T16:46:22;98619.00;;;25.08;100.00
9444;BME280;4760;42.148;24.754;2022-08-21T16:56:14;98619.59;;;24.86;100.00
9444;BME280;4760;42.148;24.754;2022-08-21T17:06:05;98605.69;;;24.83;100.00
9444;BME280;4760;42.148;24.754;2022-08-21T17:16:19;98622.22;;;24.70;100.00
9444;BME280;4760;42.148;24.754;2022-08-21T17:26:08;98620.59;;;24.58;100.00
9444;BME280;4760;42.148;24.754;2022-08-21T17:35:59;98633.31;;;24.48;100.00
9444;BME280;4760;42.148;24.754;2022-08-21T17:46:18;98635.00;;;24.39;100.00
9444;BME280;4760;42.148;24.754;2022-08-21T17:56:09;98651.69;;;24.43;100.00
9444;BME280;4760;42.148;24.754;2022-08-21T18:05:56;98657.59;;;24.19;100.00
9444;BME280;4760;42.148;24.754;2022-08-21T18:38:16;98673.63;;;23.58;100.00
9444;BME280;4760;42.148;24.754;2022-08-21T18:48:10;98662.50;;;23.34;100.00
9444;BME280;4760;42.148;24.754;2022-08-21T18:58:27;98662.03;;;23.21;100.00
9444;BME280;4760;42.148;24.754;2022-08-21T19:08:17;98665.66;;;23.07;100.00
9444;BME280;4760;42.148;24.754;2022-08-21T19:18:11;98658.50;;;22.91;100.00
9444;BME280;4760;42.148;24.754;2022-08-21T19:28:26;98639.63;;;22.68;100.00
9444;BME280;4760;42.148;24.754;2022-08-21T19:38:17;98683.09;;;22.82;100.00
9444;BME280;4760;42.148;24.754;2022-08-21T19:48:06;98673.22;;;22.72;100.00
9444;BME280;4760;42.148;24.754;2022-08-21T19:57:58;98644.47;;;22.53;100.00
9444;BME280;4760;42.148;24.754;2022-08-21T20:07:47;98701.78;;;22.70;100.00
9444;BME280;4760;42.148;24.754;2022-08-21T20:17:38;98695.94;;;22.59;100.00
9444;BME280;4760;42.148;24.754;2022-08-21T20:42:09;98711.78;;;22.47;100.00
9444;BME280;4760;42.148;24.754;2022-08-21T20:52:23;98692.88;;;22.33;100.00
9444;BME280;4760;42.148;24.754;2022-08-21T21:16:41;98706.66;;;22.46;100.00
9444;BME280;4760;42.148;24.754;2022-08-21T21:26:37;98697.94;;;22.44;100.00
9444;BME280;4760;42.148;24.754;2022-08-21T22:06:16;98676.09;;;22.62;100.00
9444;BME280;4760;42.148;24.754;2022-08-21T22:16:35;98611.81;;;22.41;100.00
9444;BME280;4760;42.148;24.754;2022-08-21T23:02:33;98683.50;;;22.36;100.00
9444;BME280;4760;42.148;24.754;2022-08-21T23:12:24;98701.81;;;22.46;100.00
